Time;durP1;ratioP1;P1;durP2;ratioP2;P2;SDS_P1;SDS_P2;PMS_P1;PMS_P2;Temp;Humidity;BMP_temperature;BMP_pressure;BME280_temperature;BME280_humidity;BME280_pressure;Samples;Min_cycle;Max_cycle;Signal;HPM_P1;HPM_P2
2023/07/20 00:00:13;;;;;;;5.30;3.70;;;;;;;17.73;92.33;98296.95;273452;1269;22238;-79
2023/07/20 00:06:40;;;;;;;5.40;4.20;;;;;;;17.68;93.15;98288.56;273545;1260;22381;-79
2023/07/20 00:12:46;;;;;;;7.90;4.00;;;;;;;17.54;92.27;98280.56;273607;1256;22904;-80
2023/07/20 00:18:48;;;;;;;7.10;3.40;;;;;;;17.43;92.93;98274.70;273605;1264;22359;-78
2023/07/20 00:24:51;;;;;;;4.80;3.40;;;;;;;17.43;93.62;98272.96;273478;1267;23250;-80
2023/07/20 00:30:53;;;;;;;5.10;3.30;;;;;;;17.38;94.05;98267.72;272987;1267;22414;-79
2023/07/20 00:37:03;;;;;;;6.10;3.40;;;;;;;17.39;94.71;98269.68;272046;1267;22287;-79
2023/07/20 00:43:05;;;;;;;6.00;3.40;;;;;;;17.38;94.80;98257.45;271685;1267;22545;-78
2023/07/20 00:49:07;;;;;;;4.60;3.20;;;;;;;17.29;95.18;98255.41;271099;1251;22605;-79
2023/07/20 00:55:09;;;;;;;8.20;3.30;;;;;;;17.20;95.51;98265.74;272181;1267;22424;-79
2023/07/20 01:01:31;;;;;;;7.30;3.40;;;;;;;17.09;95.87;98267.70;272370;1267;22767;-80
2023/07/20 01:08:07;;;;;;;5.20;4.00;;;;;;;17.04;96.66;98272.56;273589;1268;22695;-79
2023/07/20 01:14:23;;;;;;;6.10;4.10;;;;;;;17.00;97.17;98280.83;273640;1267;22389;-79
2023/07/20 01:20:25;;;;;;;7.90;4.10;;;;;;;16.95;97.73;98290.96;273424;1266;22309;-78
2023/07/20 01:27:19;;;;;;;10.90;5.50;;;;;;;16.92;97.89;98324.55;272541;1267;22473;-78
2023/07/20 01:33:21;;;;;;;10.50;6.00;;;;;;;16.87;98.88;98343.23;273551;1254;22381;-78
2023/07/20 01:39:23;;;;;;;11.10;6.20;;;;;;;16.96;99.40;98355.73;273311;1268;22450;-78
2023/07/20 01:45:25;;;;;;;9.80;5.60;;;;;;;17.03;99.48;98356.50;271923;1267;22976;-79
2023/07/20 01:51:27;;;;;;;14.40;6.50;;;;;;;17.06;99.63;98352.30;273492;1267;22346;-80
2023/07/20 01:57:29;;;;;;;17.60;7.80;;;;;;;17.09;99.96;98356.03;273420;1267;23549;-80
2023/07/20 02:03:41;;;;;;;12.50;6.90;;;;;;;17.12;100.00;98351.29;271896;1267;22268;-78
2023/07/20 02:09:42;;;;;;;11.50;6.30;;;;;;;17.18;100.00;98332.42;272700;1259;22299;-79
2023/07/20 02:16:00;;;;;;;9.10;5.90;;;;;;;17.21;100.00;98322.13;273549;1268;22513;-80
2023/07/20 02:22:02;;;;;;;9.80;5.90;;;;;;;17.15;100.00;98313.99;273470;1268;22332;-80
2023/07/20 02:28:04;;;;;;;9.90;6.30;;;;;;;17.16;100.00;98313.66;273407;1257;22372;-80
2023/07/20 02:34:06;;;;;;;11.60;6.60;;;;;;;17.23;100.00;98310.47;273622;1260;22408;-78
2023/07/20 02:40:09;;;;;;;13.40;7.70;;;;;;;17.23;100.00;98310.02;273552;1259;22186;-80
2023/07/20 02:46:10;;;;;;;14.10;7.00;;;;;;;17.25;100.00;98308.85;273526;1257;22437;-78
2023/07/20 02:52:12;;;;;;;15.70;6.70;;;;;;;17.26;100.00;98322.83;273541;1267;22439;-79
2023/07/20 02:58:14;;;;;;;12.20;5.80;;;;;;;17.26;100.00;98338.21;273507;1267;22448;-78
2023/07/20 03:04:37;;;;;;;10.50;6.10;;;;;;;17.23;100.00;98348.16;273243;1257;22517;-80
2023/07/20 03:10:46;;;;;;;8.80;5.40;;;;;;;17.19;100.00;98357.59;273414;1260;23406;-79
2023/07/20 03:16:51;;;;;;;12.80;6.60;;;;;;;17.18;100.00;98365.59;270119;1267;4369334;-82
2023/07/20 03:22:52;;;;;;;12.10;5.80;;;;;;;17.19;100.00;98371.75;273619;1257;22193;-80
2023/07/20 03:28:58;;;;;;;13.00;6.20;;;;;;;17.15;100.00;98376.84;273464;1267;22462;-82
2023/07/20 03:35:00;;;;;;;11.20;5.60;;;;;;;17.14;100.00;98382.44;273662;1267;22372;-78
2023/07/20 03:41:02;;;;;;;8.80;5.80;;;;;;;17.12;100.00;98391.52;273522;1267;22285;-80
2023/07/20 03:47:05;;;;;;;10.70;4.90;;;;;;;17.08;100.00;98396.36;273299;1267;22510;-79
2023/07/20 03:53:07;;;;;;;12.00;4.80;;;;;;;17.06;100.00;98396.02;273384;1257;22430;-79
2023/07/20 03:59:08;;;;;;;7.70;4.10;;;;;;;17.05;100.00;98407.40;273515;1267;22572;-79
2023/07/20 04:05:10;;;;;;;9.70;5.00;;;;;;;17.01;100.00;98423.30;273558;1267;22329;-78
2023/07/20 04:11:13;;;;;;;14.10;4.70;;;;;;;16.96;100.00;98443.96;273473;1267;22243;-80
2023/07/20 04:17:15;;;;;;;8.50;3.80;;;;;;;16.93;100.00;98455.55;273541;1267;22322;-78
2023/07/20 04:23:17;;;;;;;10.40;4.20;;;;;;;16.88;100.00;98459.54;273620;1256;22377;-79
2023/07/20 04:29:39;;;;;;;11.20;4.40;;;;;;;16.86;100.00;98471.68;273515;1266;22356;-78
2023/07/20 04:35:54;;;;;;;9.50;4.00;;;;;;;16.91;100.00;98488.23;272054;1267;22467;-79
2023/07/20 04:42:21;;;;;;;9.70;4.20;;;;;;;17.01;100.00;98488.95;271503;1267;22521;-79
2023/07/20 04:48:34;;;;;;;10.60;4.50;;;;;;;17.10;100.00;98498.48;272974;1268;22973;-79
2023/07/20 04:54:56;;;;;;;9.90;4.40;;;;;;;17.16;100.00;98513.27;272828;1259;22409;-78
2023/07/20 05:00:59;;;;;;;7.70;3.80;;;;;;;17.18;100.00;98525.61;273625;1267;22395;-80
2023/07/20 05:07:01;;;;;;;10.60;3.80;;;;;;;17.15;100.00;98540.63;273500;1267;22454;-79
2023/07/20 05:13:03;;;;;;;6.70;4.10;;;;;;;17.14;100.00;98548.94;273509;1267;22393;-79
2023/07/20 05:19:25;;;;;;;8.70;4.10;;;;;;;17.17;100.00;98549.67;273622;1267;23351;-79
2023/07/20 05:25:27;;;;;;;7.80;3.80;;;;;;;17.17;100.00;98554.34;273539;1266;23218;-80
2023/07/20 05:31:31;;;;;;;8.90;4.50;;;;;;;17.22;100.00;98555.58;273546;1257;23320;-79
2023/07/20 05:37:40;;;;;;;7.60;4.20;;;;;;;17.46;100.00;98544.20;273604;1267;23663;-80
2023/07/20 05:43:42;;;;;;;8.50;3.80;;;;;;;17.68;100.00;98540.84;273668;1266;23034;-79
2023/07/20 05:49:59;;;;;;;6.70;3.90;;;;;;;17.79;99.78;98523.86;273637;1267;22932;-79
2023/07/20 05:56:14;;;;;;;5.90;4.10;;;;;;;17.87;99.18;98521.70;273374;1266;22525;-80
2023/07/20 06:02:16;;;;;;;4.50;3.20;;;;;;;17.84;98.46;98530.79;272244;1257;22534;-79
2023/07/20 06:08:18;;;;;;;9.10;4.10;;;;;;;17.98;98.20;98522.10;273486;1267;22413;-80
2023/07/20 06:14:20;;;;;;;5.80;3.40;;;;;;;18.16;97.88;98513.48;272735;1267;22335;-80
2023/07/20 06:20:40;;;;;;;6.40;3.40;;;;;;;18.33;97.49;98512.15;272352;1267;23341;-80
2023/07/20 06:26:42;;;;;;;9.20;4.10;;;;;;;18.38;96.58;98512.43;272625;1260;22413;-80
2023/07/20 06:32:43;;;;;;;10.20;4.00;;;;;;;18.45;96.05;98510.49;272403;1266;22545;-79
2023/07/20 06:38:45;;;;;;;8.10;4.10;;;;;;;18.61;95.19;98511.94;271937;1267;23537;-82
2023/07/20 06:44:47;;;;;;;14.00;4.70;;;;;;;18.71;94.15;98511.94;272802;1267;22463;-80
2023/07/20 06:50:50;;;;;;;10.70;4.90;;;;;;;18.75;93.46;98516.20;273082;1269;22193;-79
2023/07/20 06:56:52;;;;;;;6.50;3.30;;;;;;;18.88;93.83;98518.67;272026;1266;22185;-80
2023/07/20 07:02:54;;;;;;;6.10;3.40;;;;;;;19.34;93.57;98522.97;271886;1266;23618;-79
2023/07/20 07:08:56;;;;;;;5.80;2.90;;;;;;;19.95;92.36;98518.90;272171;1267;22184;-79
2023/07/20 07:14:58;;;;;;;6.40;2.90;;;;;;;20.51;91.06;98516.96;272025;1267;23578;-79
2023/07/20 07:21:01;;;;;;;6.00;2.60;;;;;;;21.09;89.56;98526.65;272492;1269;23501;-79
2023/07/20 07:27:03;;;;;;;6.60;2.70;;;;;;;21.57;87.76;98527.19;273147;1267;23337;-80
2023/07/20 07:33:05;;;;;;;5.90;3.00;;;;;;;21.93;86.23;98524.33;273332;1254;22355;-79
2023/07/20 07:39:07;;;;;;;5.60;3.10;;;;;;;22.01;86.15;98524.79;273388;1267;23580;-80
2023/07/20 07:45:08;;;;;;;4.80;2.80;;;;;;;22.19;85.77;98528.20;273569;1253;22179;-79
2023/07/20 07:51:14;;;;;;;9.10;2.80;;;;;;;22.24;84.09;98531.59;273519;1267;22447;-79
2023/07/20 07:57:16;;;;;;;4.60;2.60;;;;;;;22.11;83.21;98530.61;273423;1267;22306;-80
2023/07/20 08:03:19;;;;;;;6.40;2.60;;;;;;;21.91;82.40;98534.60;273514;1256;22362;-79
2023/07/20 08:09:20;;;;;;;5.50;2.90;;;;;;;21.67;81.68;98539.29;273622;1267;22277;-78
2023/07/20 08:15:23;;;;;;;4.90;2.70;;;;;;;21.57;81.57;98537.80;273488;1267;22176;-81
2023/07/20 08:21:24;;;;;;;4.90;2.30;;;;;;;21.52;81.41;98545.39;273612;1267;22257;-82
2023/07/20 08:27:26;;;;;;;4.20;2.20;;;;;;;21.36;80.23;98552.56;273475;1267;22429;-80
2023/07/20 08:33:29;;;;;;;4.90;2.40;;;;;;;21.26;80.33;98556.28;273363;1267;22320;-80
2023/07/20 08:39:49;;;;;;;4.40;1.90;;;;;;;21.35;80.43;98557.83;273184;1262;22378;-80
2023/07/20 08:45:51;;;;;;;4.90;1.70;;;;;;;21.54;80.59;98563.83;273462;1253;22200;-79
2023/07/20 08:51:53;;;;;;;5.30;1.90;;;;;;;21.93;80.47;98564.03;273376;1267;22472;-79
2023/07/20 08:57:59;;;;;;;3.50;1.90;;;;;;;22.00;79.19;98565.44;273200;1268;22422;-79
2023/07/20 09:04:01;;;;;;;3.80;2.00;;;;;;;22.11;78.14;98568.30;273495;1267;23692;-80
2023/07/20 09:10:05;;;;;;;5.70;2.30;;;;;;;22.38;78.38;98570.11;273404;1267;24388;-79
2023/07/20 09:16:09;;;;;;;2.80;1.90;;;;;;;22.61;76.53;98569.73;273579;1267;22410;-79
2023/07/20 09:22:11;;;;;;;2.80;1.80;;;;;;;22.69;75.89;98565.96;273543;1267;22180;-82
2023/07/20 09:28:13;;;;;;;4.10;1.90;;;;;;;22.53;74.81;98561.71;273490;1267;22382;-80
2023/07/20 09:34:17;;;;;;;9.00;2.30;;;;;;;22.39;74.49;98562.45;273458;1257;23280;-80
2023/07/20 09:40:19;;;;;;;3.60;1.40;;;;;;;22.58;74.54;98567.38;273581;1253;23395;-80
2023/07/20 09:46:43;;;;;;;4.10;1.60;;;;;;;22.85;73.51;98563.02;273498;1267;22527;-80
2023/07/20 09:52:44;;;;;;;2.50;1.50;;;;;;;23.02;73.04;98562.13;273450;1266;22411;-79
2023/07/20 09:58:46;;;;;;;3.60;1.60;;;;;;;23.08;72.13;98560.19;273433;1259;22347;-78
2023/07/20 10:04:55;;;;;;;3.60;1.80;;;;;;;22.91;71.27;98567.27;273406;1268;22216;-79
2023/07/20 10:11:03;;;;;;;2.50;1.60;;;;;;;23.21;70.91;98567.23;273397;1267;22600;-78
2023/07/20 10:17:25;;;;;;;2.60;1.50;;;;;;;23.37;69.31;98562.45;273375;1267;22409;-79
2023/07/20 10:23:29;;;;;;;4.20;1.40;;;;;;;23.45;69.35;98565.60;273564;1266;22422;-78
2023/07/20 10:29:31;;;;;;;1.80;1.40;;;;;;;24.22;68.41;98563.00;273378;1267;22566;-78
2023/07/20 10:35:56;;;;;;;1.90;1.00;;;;;;;24.91;66.96;98558.92;273363;1267;22473;-79
2023/07/20 10:42:03;;;;;;;2.90;1.20;;;;;;;25.42;65.05;98554.38;273479;1267;23520;-80
2023/07/20 10:48:06;;;;;;;2.80;1.50;;;;;;;25.29;63.74;98548.61;273423;1268;22217;-79
2023/07/20 10:54:28;;;;;;;2.40;1.40;;;;;;;25.20;63.48;98549.83;273533;1268;22560;-80
2023/07/20 11:00:30;;;;;;;2.70;1.40;;;;;;;25.41;63.50;98551.63;273364;1267;22210;-80
2023/07/20 11:06:33;;;;;;;4.40;1.60;;;;;;;25.20;61.98;98548.77;273477;1266;23515;-79
2023/07/20 11:12:38;;;;;;;4.00;1.80;;;;;;;25.23;62.24;98542.15;273502;1267;22923;-80
2023/07/20 11:18:40;;;;;;;3.30;1.80;;;;;;;25.73;61.89;98539.65;273417;1267;22206;-80
2023/07/20 11:24:42;;;;;;;2.60;1.70;;;;;;;26.00;60.90;98535.21;273371;1259;23425;-80
2023/07/20 11:30:44;;;;;;;2.10;1.60;;;;;;;26.08;60.45;98539.31;273557;1267;22197;-79
2023/07/20 11:36:57;;;;;;;4.40;1.70;;;;;;;25.52;59.27;98536.19;273566;1267;23992;-80
2023/07/20 11:42:59;;;;;;;2.80;1.50;;;;;;;24.83;59.61;98535.66;273241;1266;23942;-79
2023/07/20 11:49:01;;;;;;;5.10;2.20;;;;;;;24.92;60.03;98531.09;273617;1256;22453;-80
2023/07/20 11:55:04;;;;;;;5.40;2.10;;;;;;;25.51;59.23;98525.19;273616;1262;22377;-80
2023/07/20 12:01:06;;;;;;;3.30;2.00;;;;;;;25.94;58.36;98521.82;272660;1265;23747;-80
2023/07/20 12:07:08;;;;;;;3.80;1.80;;;;;;;26.00;57.88;98522.27;271246;1263;23045;-79
2023/07/20 12:13:13;;;;;;;4.10;1.70;;;;;;;25.55;56.84;98514.87;271505;1261;22731;-80
2023/07/20 12:19:15;;;;;;;4.50;2.00;;;;;;;25.03;55.95;98510.37;271351;1257;22601;-82
2023/07/20 12:25:19;;;;;;;3.70;2.00;;;;;;;24.93;56.52;98506.75;270658;1269;25398;-79
2023/07/20 12:31:23;;;;;;;3.10;2.10;;;;;;;25.04;57.08;98500.52;272517;1266;22429;-81
2023/07/20 12:37:44;;;;;;;2.90;2.10;;;;;;;24.99;56.38;98499.31;273268;1260;22446;-80
2023/07/20 12:43:46;;;;;;;4.30;2.40;;;;;;;24.81;55.91;98495.17;273554;1266;22373;-80
2023/07/20 12:49:48;;;;;;;6.90;3.10;;;;;;;24.68;55.95;98495.86;273706;1256;22192;-80
2023/07/20 12:55:50;;;;;;;3.90;2.50;;;;;;;24.57;56.31;98492.95;273563;1269;22390;-80
2023/07/20 13:01:52;;;;;;;4.40;2.50;;;;;;;24.35;56.29;98484.17;273623;1269;22520;-80
2023/07/20 13:07:55;;;;;;;5.80;3.20;;;;;;;24.34;56.76;98472.30;273374;1269;22502;-79
2023/07/20 13:13:57;;;;;;;7.60;2.10;;;;;;;24.26;55.90;98477.28;272776;1253;24247;-80
2023/07/20 13:19:59;;;;;;;3.50;2.50;;;;;;;24.26;55.82;98476.66;271360;1269;22596;-79
2023/07/20 13:26:02;;;;;;;4.50;2.40;;;;;;;24.30;56.31;98474.83;271105;1259;22983;-79
2023/07/20 13:32:06;;;;;;;6.90;2.10;;;;;;;24.25;56.24;98471.77;271554;1269;22637;-80
2023/07/20 13:38:09;;;;;;;4.70;2.70;;;;;;;24.20;55.33;98463.88;272904;1268;22426;-78
2023/07/20 13:44:11;;;;;;;4.10;2.10;;;;;;;24.17;55.13;98469.21;272754;1266;23112;-78
2023/07/20 13:50:13;;;;;;;6.50;2.40;;;;;;;23.98;54.92;98474.45;272708;1269;23665;-79
2023/07/20 13:56:14;;;;;;;4.00;2.00;;;;;;;23.89;55.42;98474.00;273228;1263;23306;-80
2023/07/20 14:02:16;;;;;;;4.30;2.10;;;;;;;23.97;55.31;98470.67;272749;1263;22728;-78
2023/07/20 14:08:18;;;;;;;3.30;2.00;;;;;;;24.09;54.87;98475.06;272608;1269;22493;-80
2023/07/20 14:14:20;;;;;;;2.20;1.50;;;;;;;24.03;53.50;98482.57;272184;1269;23682;-80
2023/07/20 14:20:21;;;;;;;3.60;1.50;;;;;;;24.04;53.50;98482.94;271862;1260;22551;-80
2023/07/20 14:26:24;;;;;;;2.30;1.70;;;;;;;24.08;53.19;98479.67;273504;1269;22861;-81
2023/07/20 14:32:26;;;;;;;2.10;1.40;;;;;;;24.00;52.65;98467.60;273575;1263;22384;-80
2023/07/20 14:38:31;;;;;;;2.70;1.60;;;;;;;23.82;52.88;98471.62;273408;1269;22202;-80
2023/07/20 14:44:33;;;;;;;5.80;1.80;;;;;;;23.74;53.34;98476.58;273498;1269;23726;-79
2023/07/20 14:50:35;;;;;;;4.20;2.10;;;;;;;23.65;53.80;98478.75;273356;1272;22406;-79
2023/07/20 14:56:38;;;;;;;3.20;2.10;;;;;;;23.49;54.43;98480.95;272946;1269;22187;-79
2023/07/20 15:02:40;;;;;;;4.20;1.90;;;;;;;23.32;54.62;98483.78;273483;1268;22399;-79
2023/07/20 15:08:42;;;;;;;4.20;2.20;;;;;;;23.09;54.82;98490.83;273568;1269;22292;-79
2023/07/20 15:15:10;;;;;;;7.80;2.40;;;;;;;22.83;55.30;98515.73;269674;1269;5103786;-79
2023/07/20 15:21:12;;;;;;;4.10;1.80;;;;;;;22.32;56.67;98564.29;273286;1269;22639;-82
2023/07/20 15:27:14;;;;;;;4.70;1.90;;;;;;;21.46;58.02;98602.03;272048;1269;23149;-80
2023/07/20 15:33:16;;;;;;;7.50;1.80;;;;;;;20.68;60.25;98624.47;273610;1269;22379;-81
2023/07/20 15:39:18;;;;;;;7.60;1.60;;;;;;;19.95;62.45;98632.48;273635;1269;22386;-82
2023/07/20 15:45:21;;;;;;;4.80;2.60;;;;;;;19.13;63.65;98620.71;273084;1269;22395;-82
2023/07/20 15:51:23;;;;;;;6.30;2.50;;;;;;;18.51;66.30;98625.85;273022;1269;22383;-79
2023/07/20 15:57:25;;;;;;;3.30;1.90;;;;;;;18.17;68.24;98615.71;270756;1269;23112;-79
2023/07/20 16:03:26;;;;;;;2.80;1.60;;;;;;;18.02;69.81;98613.80;271572;1269;22267;-78
2023/07/20 16:09:28;;;;;;;3.20;1.20;;;;;;;17.95;71.28;98599.41;271600;1269;22371;-78
2023/07/20 16:15:29;;;;;;;2.60;1.20;;;;;;;17.93;72.72;98588.69;264925;1269;10001897;-78
2023/07/20 16:21:32;;;;;;;1.90;1.40;;;;;;;17.88;74.77;98586.05;273191;1267;22500;-79
2023/07/20 16:27:39;;;;;;;3.10;1.50;;;;;;;17.95;76.52;98591.58;273040;1269;22421;-79
2023/07/20 16:33:41;;;;;;;;;;;;;;;18.04;76.95;98595.95;273151;1268;22443;-79
2023/07/20 16:39:43;;;;;;;4.70;1.00;;;;;;;18.09;77.02;98598.49;273350;1260;22384;-78
2023/07/20 16:45:48;;;;;;;5.00;1.30;;;;;;;18.10;77.04;98599.66;273319;1267;23278;-79
2023/07/20 16:52:11;;;;;;;2.60;1.50;;;;;;;18.11;79.38;98600.19;273055;1257;23920;-78
2023/07/20 16:58:14;;;;;;;2.50;1.70;;;;;;;18.07;79.73;98597.92;273346;1269;22575;-78
2023/07/20 17:04:15;;;;;;;2.20;1.60;;;;;;;17.97;80.38;98595.95;273270;1269;23203;-78
2023/07/20 17:10:17;;;;;;;4.00;2.00;;;;;;;17.96;80.95;98605.38;273389;1269;23753;-78
2023/07/20 17:16:19;;;;;;;2.70;1.60;;;;;;;17.95;82.64;98612.55;271949;1269;22564;-79
2023/07/20 17:22:20;;;;;;;2.80;1.80;;;;;;;17.97;82.83;98615.81;272916;1269;22473;-79
2023/07/20 17:28:22;;;;;;;6.20;2.00;;;;;;;18.00;83.25;98618.20;273417;1267;22403;-81
2023/07/20 17:34:24;;;;;;;3.40;1.80;;;;;;;18.02;83.87;98614.98;273408;1268;22484;-79
2023/07/20 17:40:27;;;;;;;4.70;2.20;;;;;;;18.06;84.65;98619.79;273464;1269;22386;-79
2023/07/20 17:46:49;;;;;;;5.90;2.20;;;;;;;18.10;86.47;98636.30;273393;1253;22278;-79
2023/07/20 17:53:11;;;;;;;4.50;2.40;;;;;;;18.06;87.66;98638.94;273251;1269;22393;-78
2023/07/20 17:59:13;;;;;;;6.80;2.30;;;;;;;17.99;88.04;98638.95;273435;1267;23224;-78
2023/07/20 18:05:16;;;;;;;4.60;2.60;;;;;;;17.91;88.75;98652.02;273406;1268;22391;-78
2023/07/20 18:11:19;;;;;;;2.80;2.10;;;;;;;17.83;89.82;98665.20;273448;1259;23080;-79
2023/07/20 18:17:20;;;;;;;4.60;2.50;;;;;;;17.80;90.77;98668.59;273208;1269;22195;-79
2023/07/20 18:23:22;;;;;;;4.60;2.90;;;;;;;17.74;90.44;98666.44;273324;1260;22239;-79
2023/07/20 18:29:24;;;;;;;4.20;2.70;;;;;;;17.52;90.72;98671.98;273317;1269;22579;-81
2023/07/20 18:35:31;;;;;;;4.70;2.70;;;;;;;17.44;92.54;98671.44;273350;1269;22416;-79
2023/07/20 18:41:32;;;;;;;4.20;2.90;;;;;;;17.47;93.70;98672.84;273300;1269;23666;-81
2023/07/20 18:47:36;;;;;;;4.20;3.40;;;;;;;17.45;94.32;98669.05;273230;1269;22257;-79
2023/07/20 18:53:38;;;;;;;4.10;3.20;;;;;;;17.41;94.59;98672.82;273233;1269;22327;-79
2023/07/20 18:59:43;;;;;;;3.10;2.80;;;;;;;17.35;94.79;98675.97;273397;1269;22220;-79
2023/07/20 19:06:03;;;;;;;4.40;2.50;;;;;;;17.13;94.80;98680.61;273321;1256;22438;-79
2023/07/20 19:12:06;;;;;;;8.20;5.50;;;;;;;16.93;94.94;98692.70;273298;1269;22217;-78
2023/07/20 19:18:07;;;;;;;11.50;5.20;;;;;;;16.73;94.76;98704.05;273441;1269;22273;-78
2023/07/20 19:24:09;;;;;;;9.60;5.30;;;;;;;16.66;95.91;98707.73;273483;1257;22360;-80
2023/07/20 19:30:11;;;;;;;9.20;4.90;;;;;;;16.56;96.84;98715.96;273538;1269;23308;-79
2023/07/20 19:36:13;;;;;;;6.10;4.50;;;;;;;16.53;97.66;98721.15;273371;1268;22621;-79
2023/07/20 19:42:15;;;;;;;5.80;4.40;;;;;;;16.51;98.03;98723.94;273287;1267;22471;-79
2023/07/20 19:48:19;;;;;;;6.70;4.50;;;;;;;16.45;98.23;98727.90;273360;1269;22353;-79
2023/07/20 19:54:58;;;;;;;8.60;4.60;;;;;;;16.42;98.71;98735.89;273469;1260;23353;-79
2023/07/20 20:01:00;;;;;;;5.50;3.60;;;;;;;16.39;99.11;98737.92;273595;1268;23559;-79
2023/07/20 20:07:24;;;;;;;6.00;4.90;;;;;;;16.29;99.27;98734.61;273562;1269;22389;-78
2023/07/20 20:13:27;;;;;;;6.30;4.40;;;;;;;16.21;99.44;98732.70;273549;1269;22187;-79
2023/07/20 20:19:29;;;;;;;5.70;4.10;;;;;;;16.19;99.59;98738.81;273566;1269;22267;-79
2023/07/20 20:25:31;;;;;;;4.40;3.60;;;;;;;16.09;99.52;98733.50;273610;1269;23760;-79
2023/07/20 20:31:32;;;;;;;5.20;4.00;;;;;;;16.02;99.89;98735.20;273634;1253;22101;-80
2023/07/20 20:37:36;;;;;;;5.90;4.80;;;;;;;15.99;100.00;98736.11;273004;1260;22380;-79
2023/07/20 20:43:45;;;;;;;9.20;7.70;;;;;;;15.94;100.00;98732.08;273638;1253;22431;-80
2023/07/20 20:49:49;;;;;;;9.30;7.80;;;;;;;15.88;100.00;98734.54;273604;1269;22395;-78
2023/07/20 20:55:50;;;;;;;9.90;8.00;;;;;;;15.84;100.00;98734.52;273584;1269;22379;-78
2023/07/20 21:01:52;;;;;;;10.40;6.90;;;;;;;15.75;100.00;98738.34;273314;1269;23456;-79
2023/07/20 21:07:54;;;;;;;9.10;6.20;;;;;;;15.69;100.00;98739.45;272835;1257;22184;-81
2023/07/20 21:14:14;;;;;;;7.60;6.00;;;;;;;15.64;100.00;98742.73;273464;1262;22377;-78
2023/07/20 21:20:15;;;;;;;8.00;4.80;;;;;;;15.53;100.00;98746.04;273450;1269;22281;-78
2023/07/20 21:26:17;;;;;;;7.10;5.10;;;;;;;15.40;100.00;98748.16;273623;1260;22496;-78
2023/07/20 21:32:19;;;;;;;6.20;4.50;;;;;;;15.26;100.00;98745.23;273578;1269;22449;-81
2023/07/20 21:38:20;;;;;;;8.50;4.80;;;;;;;15.13;100.00;98738.92;273695;1269;22570;-78
2023/07/20 21:44:23;;;;;;;5.50;4.60;;;;;;;15.07;100.00;98740.41;272698;1268;23250;-79
2023/07/20 21:50:38;;;;;;;7.50;4.50;;;;;;;14.98;100.00;98748.30;271213;1269;22167;-79
2023/07/20 21:57:01;;;;;;;6.20;4.90;;;;;;;14.91;100.00;98756.89;273177;1259;22393;-79
2023/07/20 22:03:04;;;;;;;6.10;4.40;;;;;;;14.87;100.00;98755.19;273462;1267;22190;-79
2023/07/20 22:09:28;;;;;;;7.20;4.60;;;;;;;14.80;100.00;98759.98;273732;1259;22255;-79
2023/07/20 22:15:31;;;;;;;5.50;4.30;;;;;;;14.70;100.00;98762.27;273689;1267;22158;-79
2023/07/20 22:21:33;;;;;;;9.40;5.40;;;;;;;14.59;100.00;98759.94;273633;1265;23319;-79
2023/07/20 22:27:54;;;;;;;10.60;5.00;;;;;;;14.49;100.00;98767.96;273103;1267;22564;-79
2023/07/20 22:34:17;;;;;;;9.20;6.30;;;;;;;14.42;100.00;98765.83;269916;1251;22508;-78
2023/07/20 22:40:19;;;;;;;9.30;5.30;;;;;;;14.32;100.00;98762.99;271896;1257;23173;-79
2023/07/20 22:46:40;;;;;;;6.30;5.20;;;;;;;14.24;100.00;98760.98;273693;1253;22573;-78
2023/07/20 22:52:42;;;;;;;7.90;4.40;;;;;;;14.17;100.00;98761.81;273484;1267;22217;-78
2023/07/20 22:58:44;;;;;;;7.40;4.90;;;;;;;14.11;100.00;98759.34;272767;1267;24206;-78
2023/07/20 23:04:47;;;;;;;5.90;4.60;;;;;;;14.02;100.00;98754.99;271913;1267;22283;-79
2023/07/20 23:11:11;;;;;;;7.70;5.40;;;;;;;13.93;100.00;98754.42;272549;1269;22219;-78
2023/07/20 23:17:14;;;;;;;6.60;5.00;;;;;;;13.88;100.00;98754.06;273638;1267;22456;-78
2023/07/20 23:23:15;;;;;;;7.60;4.50;;;;;;;13.87;100.00;98759.42;271335;1268;22607;-78
2023/07/20 23:29:17;;;;;;;8.40;5.10;;;;;;;13.85;100.00;98763.27;273501;1259;22375;-78
2023/07/20 23:35:20;;;;;;;12.90;5.70;;;;;;;13.77;100.00;98767.56;273622;1269;22199;-79
2023/07/20 23:41:59;;;;;;;9.70;4.80;;;;;;;13.64;100.00;98766.05;273592;1264;22420;-79
2023/07/20 23:48:29;;;;;;;6.60;4.50;;;;;;;13.56;100.00;98760.75;273655;1259;22148;-78
2023/07/20 23:55:06;;;;;;;6.70;4.90;;;;;;;13.51;100.00;98763.75;273388;1269;22591;-78
